sensor_id;sensor_type;location;lat;lon;timestamp;P1;durP1;ratioP1;P2;durP2;ratioP2
77350;SDS011;66420;50.246;14.320;2023-05-20T00:01:23;17.35;;;10.15;;
77350;SDS011;66420;50.246;14.320;2023-05-20T00:04:07;14.32;;;8.88;;
77350;SDS011;66420;50.246;14.320;2023-05-20T00:06:52;19.60;;;11.30;;
77350;SDS011;66420;50.246;14.320;2023-05-20T00:09:38;15.50;;;9.57;;
77350;SDS011;66420;50.246;14.320;2023-05-20T00:12:23;19.65;;;10.38;;
77350;SDS011;66420;50.246;14.320;2023-05-20T00:15:08;16.77;;;10.68;;
77350;SDS011;66420;50.246;14.320;2023-05-20T00:17:55;16.83;;;10.27;;
77350;SDS011;66420;50.246;14.320;2023-05-20T00:20:40;14.98;;;9.00;;
77350;SDS011;66420;50.246;14.320;2023-05-20T00:23:25;15.40;;;8.90;;
77350;SDS011;66420;50.246;14.320;2023-05-20T00:26:09;17.00;;;9.02;;
77350;SDS011;66420;50.246;14.320;2023-05-20T00:28:54;13.82;;;7.82;;
77350;SDS011;66420;50.246;14.320;2023-05-20T00:31:39;16.85;;;10.13;;
77350;SDS011;66420;50.246;14.320;2023-05-20T00:34:24;17.20;;;10.20;;
77350;SDS011;66420;50.246;14.320;2023-05-20T00:37:09;17.30;;;9.88;;
77350;SDS011;66420;50.246;14.320;2023-05-20T00:39:54;17.15;;;9.13;;
77350;SDS011;66420;50.246;14.320;2023-05-20T00:42:39;16.65;;;8.82;;
77350;SDS011;66420;50.246;14.320;2023-05-20T00:45:24;21.25;;;10.10;;
77350;SDS011;66420;50.246;14.320;2023-05-20T00:48:09;17.83;;;8.82;;
77350;SDS011;66420;50.246;14.320;2023-05-20T00:50:54;26.30;;;12.23;;
77350;SDS011;66420;50.246;14.320;2023-05-20T00:53:39;22.05;;;9.98;;
77350;SDS011;66420;50.246;14.320;2023-05-20T00:56:25;26.90;;;11.63;;
77350;SDS011;66420;50.246;14.320;2023-05-20T00:59:10;31.08;;;12.73;;
77350;SDS011;66420;50.246;14.320;2023-05-20T01:01:56;26.15;;;11.18;;
77350;SDS011;66420;50.246;14.320;2023-05-20T01:04:40;19.27;;;9.73;;
77350;SDS011;66420;50.246;14.320;2023-05-20T01:07:30;27.25;;;10.57;;
77350;SDS011;66420;50.246;14.320;2023-05-20T01:10:15;19.50;;;9.90;;
77350;SDS011;66420;50.246;14.320;2023-05-20T01:13:00;25.30;;;11.90;;
77350;SDS011;66420;50.246;14.320;2023-05-20T01:15:51;23.02;;;11.55;;
77350;SDS011;66420;50.246;14.320;2023-05-20T01:18:39;23.35;;;12.23;;
77350;SDS011;66420;50.246;14.320;2023-05-20T01:21:26;20.35;;;11.35;;
77350;SDS011;66420;50.246;14.320;2023-05-20T01:24:14;19.70;;;10.48;;
77350;SDS011;66420;50.246;14.320;2023-05-20T01:26:59;28.33;;;14.55;;
77350;SDS011;66420;50.246;14.320;2023-05-20T01:29:43;24.10;;;13.38;;
77350;SDS011;66420;50.246;14.320;2023-05-20T01:35:27;23.90;;;12.63;;
77350;SDS011;66420;50.246;14.320;2023-05-20T01:38:14;24.50;;;12.85;;
77350;SDS011;66420;50.246;14.320;2023-05-20T01:41:03;25.35;;;13.73;;
77350;SDS011;66420;50.246;14.320;2023-05-20T01:43:49;26.33;;;13.85;;
77350;SDS011;66420;50.246;14.320;2023-05-20T01:46:34;21.77;;;10.82;;
77350;SDS011;66420;50.246;14.320;2023-05-20T01:49:19;23.98;;;13.02;;
77350;SDS011;66420;50.246;14.320;2023-05-20T01:52:03;22.20;;;12.15;;
77350;SDS011;66420;50.246;14.320;2023-05-20T01:54:49;18.58;;;10.65;;
77350;SDS011;66420;50.246;14.320;2023-05-20T01:57:36;17.77;;;10.55;;
77350;SDS011;66420;50.246;14.320;2023-05-20T02:00:21;18.67;;;10.10;;
77350;SDS011;66420;50.246;14.320;2023-05-20T02:03:06;15.00;;;9.00;;
77350;SDS011;66420;50.246;14.320;2023-05-20T02:05:50;20.02;;;11.20;;
77350;SDS011;66420;50.246;14.320;2023-05-20T02:08:36;23.55;;;11.93;;
77350;SDS011;66420;50.246;14.320;2023-05-20T02:11:21;20.85;;;11.20;;
77350;SDS011;66420;50.246;14.320;2023-05-20T02:14:06;20.83;;;12.27;;
77350;SDS011;66420;50.246;14.320;2023-05-20T02:16:51;18.20;;;10.68;;
77350;SDS011;66420;50.246;14.320;2023-05-20T02:19:36;19.85;;;11.23;;
77350;SDS011;66420;50.246;14.320;2023-05-20T02:22:20;18.95;;;11.05;;
77350;SDS011;66420;50.246;14.320;2023-05-20T02:25:05;20.23;;;11.48;;
77350;SDS011;66420;50.246;14.320;2023-05-20T02:27:51;21.35;;;10.82;;
77350;SDS011;66420;50.246;14.320;2023-05-20T02:30:37;23.23;;;10.80;;
77350;SDS011;66420;50.246;14.320;2023-05-20T02:33:22;17.95;;;10.57;;
77350;SDS011;66420;50.246;14.320;2023-05-20T02:36:06;18.35;;;9.70;;
77350;SDS011;66420;50.246;14.320;2023-05-20T02:38:51;21.77;;;11.32;;
77350;SDS011;66420;50.246;14.320;2023-05-20T02:41:39;18.33;;;10.20;;
77350;SDS011;66420;50.246;14.320;2023-05-20T02:44:24;18.80;;;10.48;;
77350;SDS011;66420;50.246;14.320;2023-05-20T02:47:09;17.23;;;10.10;;
77350;SDS011;66420;50.246;14.320;2023-05-20T02:49:53;15.38;;;8.65;;
77350;SDS011;66420;50.246;14.320;2023-05-20T02:52:38;17.70;;;9.02;;
77350;SDS011;66420;50.246;14.320;2023-05-20T02:55:25;17.23;;;9.75;;
77350;SDS011;66420;50.246;14.320;2023-05-20T02:58:11;18.45;;;10.55;;
77350;SDS011;66420;50.246;14.320;2023-05-20T03:00:56;18.70;;;9.55;;
77350;SDS011;66420;50.246;14.320;2023-05-20T03:03:41;18.35;;;10.18;;
77350;SDS011;66420;50.246;14.320;2023-05-20T03:06:26;19.33;;;10.55;;
77350;SDS011;66420;50.246;14.320;2023-05-20T03:09:13;15.15;;;9.35;;
77350;SDS011;66420;50.246;14.320;2023-05-20T03:11:58;16.27;;;9.15;;
77350;SDS011;66420;50.246;14.320;2023-05-20T03:14:42;14.90;;;8.95;;
77350;SDS011;66420;50.246;14.320;2023-05-20T03:17:27;16.70;;;9.75;;
77350;SDS011;66420;50.246;14.320;2023-05-20T03:20:12;16.30;;;9.07;;
77350;SDS011;66420;50.246;14.320;2023-05-20T03:22:58;16.10;;;9.93;;
77350;SDS011;66420;50.246;14.320;2023-05-20T03:25:44;18.45;;;9.13;;
77350;SDS011;66420;50.246;14.320;2023-05-20T03:28:29;16.15;;;9.68;;
77350;SDS011;66420;50.246;14.320;2023-05-20T03:31:14;18.67;;;10.20;;
77350;SDS011;66420;50.246;14.320;2023-05-20T03:33:59;18.27;;;10.68;;
77350;SDS011;66420;50.246;14.320;2023-05-20T03:36:43;17.35;;;10.88;;
77350;SDS011;66420;50.246;14.320;2023-05-20T03:39:29;14.68;;;8.88;;
77350;SDS011;66420;50.246;14.320;2023-05-20T03:42:13;19.30;;;10.48;;
77350;SDS011;66420;50.246;14.320;2023-05-20T03:44:58;16.58;;;10.40;;
77350;SDS011;66420;50.246;14.320;2023-05-20T03:47:43;18.67;;;9.70;;
77350;SDS011;66420;50.246;14.320;2023-05-20T03:50:28;12.25;;;7.53;;
77350;SDS011;66420;50.246;14.320;2023-05-20T03:53:14;15.18;;;8.80;;
77350;SDS011;66420;50.246;14.320;2023-05-20T03:55:58;15.63;;;9.27;;
77350;SDS011;66420;50.246;14.320;2023-05-20T03:58:43;15.50;;;9.45;;
77350;SDS011;66420;50.246;14.320;2023-05-20T04:01:28;19.48;;;10.82;;
77350;SDS011;66420;50.246;14.320;2023-05-20T04:04:13;13.98;;;8.13;;
77350;SDS011;66420;50.246;14.320;2023-05-20T04:06:58;20.92;;;11.15;;
77350;SDS011;66420;50.246;14.320;2023-05-20T04:09:48;20.17;;;11.00;;
77350;SDS011;66420;50.246;14.320;2023-05-20T04:12:32;15.25;;;8.98;;
77350;SDS011;66420;50.246;14.320;2023-05-20T04:15:19;16.60;;;10.05;;
77350;SDS011;66420;50.246;14.320;2023-05-20T04:18:06;15.50;;;8.60;;
77350;SDS011;66420;50.246;14.320;2023-05-20T04:20:53;14.50;;;8.15;;
77350;SDS011;66420;50.246;14.320;2023-05-20T04:23:39;14.57;;;8.98;;
77350;SDS011;66420;50.246;14.320;2023-05-20T04:26:24;21.88;;;11.75;;
77350;SDS011;66420;50.246;14.320;2023-05-20T04:29:08;19.25;;;10.43;;
77350;SDS011;66420;50.246;14.320;2023-05-20T04:31:55;19.75;;;10.52;;
77350;SDS011;66420;50.246;14.320;2023-05-20T04:34:41;23.08;;;10.90;;
77350;SDS011;66420;50.246;14.320;2023-05-20T04:37:28;19.42;;;10.38;;
77350;SDS011;66420;50.246;14.320;2023-05-20T04:40:15;19.92;;;9.88;;
77350;SDS011;66420;50.246;14.320;2023-05-20T04:43:00;26.70;;;12.95;;
77350;SDS011;66420;50.246;14.320;2023-05-20T04:45:44;18.15;;;10.13;;
77350;SDS011;66420;50.246;14.320;2023-05-20T04:48:31;21.27;;;11.68;;
77350;SDS011;66420;50.246;14.320;2023-05-20T04:51:16;21.92;;;12.00;;
77350;SDS011;66420;50.246;14.320;2023-05-20T04:54:01;16.63;;;9.73;;
77350;SDS011;66420;50.246;14.320;2023-05-20T04:56:46;23.52;;;12.68;;
77350;SDS011;66420;50.246;14.320;2023-05-20T04:59:31;19.08;;;10.32;;
77350;SDS011;66420;50.246;14.320;2023-05-20T05:02:16;24.23;;;12.35;;
77350;SDS011;66420;50.246;14.320;2023-05-20T05:05:01;18.88;;;11.35;;
77350;SDS011;66420;50.246;14.320;2023-05-20T05:07:45;18.02;;;9.63;;
77350;SDS011;66420;50.246;14.320;2023-05-20T05:10:29;21.17;;;10.48;;
77350;SDS011;66420;50.246;14.320;2023-05-20T05:13:14;19.23;;;10.63;;
77350;SDS011;66420;50.246;14.320;2023-05-20T05:16:00;16.67;;;10.57;;
77350;SDS011;66420;50.246;14.320;2023-05-20T05:18:45;16.27;;;9.35;;
77350;SDS011;66420;50.246;14.320;2023-05-20T05:21:29;21.10;;;11.43;;
77350;SDS011;66420;50.246;14.320;2023-05-20T05:24:14;19.23;;;10.18;;
77350;SDS011;66420;50.246;14.320;2023-05-20T05:26:59;16.85;;;9.20;;
77350;SDS011;66420;50.246;14.320;2023-05-20T05:29:44;19.38;;;10.77;;
77350;SDS011;66420;50.246;14.320;2023-05-20T05:32:29;19.17;;;10.10;;
77350;SDS011;66420;50.246;14.320;2023-05-20T05:35:13;19.88;;;10.15;;
77350;SDS011;66420;50.246;14.320;2023-05-20T05:37:58;15.80;;;9.27;;
77350;SDS011;66420;50.246;14.320;2023-05-20T05:40:43;19.80;;;10.02;;
77350;SDS011;66420;50.246;14.320;2023-05-20T05:43:28;19.05;;;10.38;;
77350;SDS011;66420;50.246;14.320;2023-05-20T05:46:12;18.85;;;10.45;;
77350;SDS011;66420;50.246;14.320;2023-05-20T05:48:57;18.52;;;10.48;;
77350;SDS011;66420;50.246;14.320;2023-05-20T05:51:42;18.88;;;11.52;;
77350;SDS011;66420;50.246;14.320;2023-05-20T05:54:27;20.23;;;11.00;;
77350;SDS011;66420;50.246;14.320;2023-05-20T05:57:13;17.95;;;10.35;;
77350;SDS011;66420;50.246;14.320;2023-05-20T05:59:58;18.27;;;10.38;;
77350;SDS011;66420;50.246;14.320;2023-05-20T06:02:43;18.63;;;11.23;;
77350;SDS011;66420;50.246;14.320;2023-05-20T06:05:28;19.90;;;10.63;;
77350;SDS011;66420;50.246;14.320;2023-05-20T06:08:12;18.60;;;11.05;;
77350;SDS011;66420;50.246;14.320;2023-05-20T06:10:57;16.75;;;10.40;;
77350;SDS011;66420;50.246;14.320;2023-05-20T06:13:42;19.77;;;11.43;;
77350;SDS011;66420;50.246;14.320;2023-05-20T06:21:43;17.73;;;10.93;;
77350;SDS011;66420;50.246;14.320;2023-05-20T06:24:27;22.88;;;12.07;;
77350;SDS011;66420;50.246;14.320;2023-05-20T06:27:12;18.35;;;11.60;;
77350;SDS011;66420;50.246;14.320;2023-05-20T06:29:56;23.58;;;11.48;;
77350;SDS011;66420;50.246;14.320;2023-05-20T06:32:41;20.80;;;11.20;;
77350;SDS011;66420;50.246;14.320;2023-05-20T06:35:25;22.85;;;12.50;;
77350;SDS011;66420;50.246;14.320;2023-05-20T06:38:10;19.77;;;11.90;;
77350;SDS011;66420;50.246;14.320;2023-05-20T06:40:55;21.10;;;12.70;;
77350;SDS011;66420;50.246;14.320;2023-05-20T06:43:40;21.33;;;12.57;;
77350;SDS011;66420;50.246;14.320;2023-05-20T06:46:24;21.17;;;12.00;;
77350;SDS011;66420;50.246;14.320;2023-05-20T06:49:09;23.08;;;12.32;;
77350;SDS011;66420;50.246;14.320;2023-05-20T06:51:54;19.13;;;12.05;;
77350;SDS011;66420;50.246;14.320;2023-05-20T06:54:38;19.30;;;11.85;;
77350;SDS011;66420;50.246;14.320;2023-05-20T06:57:24;19.27;;;11.63;;
77350;SDS011;66420;50.246;14.320;2023-05-20T07:00:09;21.50;;;13.02;;
77350;SDS011;66420;50.246;14.320;2023-05-20T07:02:54;19.13;;;12.05;;
77350;SDS011;66420;50.246;14.320;2023-05-20T07:05:39;20.77;;;12.05;;
77350;SDS011;66420;50.246;14.320;2023-05-20T07:08:24;20.73;;;13.27;;
77350;SDS011;66420;50.246;14.320;2023-05-20T07:11:09;19.70;;;11.70;;
77350;SDS011;66420;50.246;14.320;2023-05-20T07:13:54;19.25;;;11.25;;
77350;SDS011;66420;50.246;14.320;2023-05-20T07:16:38;20.25;;;12.88;;
77350;SDS011;66420;50.246;14.320;2023-05-20T07:19:23;17.65;;;12.52;;
77350;SDS011;66420;50.246;14.320;2023-05-20T07:22:08;20.77;;;12.57;;
77350;SDS011;66420;50.246;14.320;2023-05-20T07:24:53;19.27;;;12.13;;
77350;SDS011;66420;50.246;14.320;2023-05-20T07:27:37;19.92;;;12.75;;
77350;SDS011;66420;50.246;14.320;2023-05-20T07:30:22;19.38;;;12.05;;
77350;SDS011;66420;50.246;14.320;2023-05-20T07:33:06;20.05;;;13.30;;
77350;SDS011;66420;50.246;14.320;2023-05-20T07:35:51;18.95;;;12.32;;
77350;SDS011;66420;50.246;14.320;2023-05-20T07:38:37;22.05;;;11.60;;
77350;SDS011;66420;50.246;14.320;2023-05-20T07:41:22;22.20;;;11.88;;
77350;SDS011;66420;50.246;14.320;2023-05-20T07:44:07;23.40;;;12.15;;
77350;SDS011;66420;50.246;14.320;2023-05-20T07:46:54;19.13;;;12.18;;
77350;SDS011;66420;50.246;14.320;2023-05-20T07:49:39;22.45;;;12.00;;
77350;SDS011;66420;50.246;14.320;2023-05-20T07:52:24;21.85;;;12.38;;
77350;SDS011;66420;50.246;14.320;2023-05-20T07:55:08;21.67;;;12.40;;
77350;SDS011;66420;50.246;14.320;2023-05-20T07:57:53;20.77;;;12.38;;
77350;SDS011;66420;50.246;14.320;2023-05-20T08:00:38;23.98;;;12.75;;
77350;SDS011;66420;50.246;14.320;2023-05-20T08:03:23;19.70;;;12.15;;
77350;SDS011;66420;50.246;14.320;2023-05-20T08:06:07;20.40;;;11.93;;
77350;SDS011;66420;50.246;14.320;2023-05-20T08:08:51;22.92;;;12.07;;
77350;SDS011;66420;50.246;14.320;2023-05-20T08:11:39;17.13;;;11.00;;
77350;SDS011;66420;50.246;14.320;2023-05-20T08:14:24;18.92;;;12.07;;
77350;SDS011;66420;50.246;14.320;2023-05-20T08:17:08;18.33;;;11.48;;
77350;SDS011;66420;50.246;14.320;2023-05-20T08:19:54;21.20;;;12.20;;
77350;SDS011;66420;50.246;14.320;2023-05-20T08:22:39;20.63;;;12.00;;
77350;SDS011;66420;50.246;14.320;2023-05-20T08:25:24;19.13;;;12.65;;
77350;SDS011;66420;50.246;14.320;2023-05-20T08:28:08;20.08;;;11.75;;
77350;SDS011;66420;50.246;14.320;2023-05-20T08:30:53;17.90;;;11.63;;
77350;SDS011;66420;50.246;14.320;2023-05-20T08:33:38;20.35;;;10.93;;
77350;SDS011;66420;50.246;14.320;2023-05-20T08:36:23;17.17;;;10.63;;
77350;SDS011;66420;50.246;14.320;2023-05-20T08:39:08;18.05;;;10.60;;
77350;SDS011;66420;50.246;14.320;2023-05-20T08:41:53;18.40;;;11.45;;
77350;SDS011;66420;50.246;14.320;2023-05-20T08:44:37;16.88;;;10.07;;
77350;SDS011;66420;50.246;14.320;2023-05-20T08:47:25;16.92;;;10.70;;
77350;SDS011;66420;50.246;14.320;2023-05-20T08:50:10;18.17;;;10.48;;
77350;SDS011;66420;50.246;14.320;2023-05-20T08:52:56;18.92;;;11.07;;
77350;SDS011;66420;50.246;14.320;2023-05-20T08:55:41;18.45;;;10.75;;
77350;SDS011;66420;50.246;14.320;2023-05-20T08:58:30;19.55;;;11.50;;
77350;SDS011;66420;50.246;14.320;2023-05-20T09:01:15;17.92;;;10.90;;
77350;SDS011;66420;50.246;14.320;2023-05-20T09:04:00;21.60;;;12.35;;
77350;SDS011;66420;50.246;14.320;2023-05-20T09:06:46;20.60;;;11.77;;
77350;SDS011;66420;50.246;14.320;2023-05-20T09:09:33;18.02;;;11.13;;
77350;SDS011;66420;50.246;14.320;2023-05-20T09:12:19;17.38;;;11.13;;
77350;SDS011;66420;50.246;14.320;2023-05-20T09:15:05;17.90;;;9.43;;
77350;SDS011;66420;50.246;14.320;2023-05-20T09:17:50;18.65;;;10.85;;
77350;SDS011;66420;50.246;14.320;2023-05-20T09:20:36;16.25;;;9.65;;
77350;SDS011;66420;50.246;14.320;2023-05-20T09:23:21;18.92;;;10.48;;
77350;SDS011;66420;50.246;14.320;2023-05-20T09:26:05;18.23;;;9.98;;
77350;SDS011;66420;50.246;14.320;2023-05-20T09:28:50;17.60;;;10.70;;
77350;SDS011;66420;50.246;14.320;2023-05-20T09:31:35;17.98;;;10.68;;
77350;SDS011;66420;50.246;14.320;2023-05-20T09:34:21;15.57;;;10.70;;
77350;SDS011;66420;50.246;14.320;2023-05-20T09:37:06;15.88;;;10.50;;
77350;SDS011;66420;50.246;14.320;2023-05-20T09:39:56;14.52;;;9.55;;
77350;SDS011;66420;50.246;14.320;2023-05-20T09:43:03;19.02;;;9.90;;
77350;SDS011;66420;50.246;14.320;2023-05-20T09:45:50;17.75;;;9.95;;
77350;SDS011;66420;50.246;14.320;2023-05-20T09:48:35;18.20;;;10.00;;
77350;SDS011;66420;50.246;14.320;2023-05-20T09:51:21;17.38;;;10.13;;
77350;SDS011;66420;50.246;14.320;2023-05-20T09:54:07;16.50;;;10.52;;
77350;SDS011;66420;50.246;14.320;2023-05-20T09:56:55;15.35;;;9.88;;
77350;SDS011;66420;50.246;14.320;2023-05-20T09:59:43;13.40;;;8.95;;
77350;SDS011;66420;50.246;14.320;2023-05-20T10:02:30;11.50;;;8.48;;
77350;SDS011;66420;50.246;14.320;2023-05-20T10:05:18;17.05;;;9.35;;
77350;SDS011;66420;50.246;14.320;2023-05-20T10:08:13;15.07;;;9.63;;
77350;SDS011;66420;50.246;14.320;2023-05-20T10:17:55;14.18;;;8.73;;
77350;SDS011;66420;50.246;14.320;2023-05-20T10:20:45;16.92;;;8.07;;
77350;SDS011;66420;50.246;14.320;2023-05-20T10:23:31;16.10;;;8.20;;
77350;SDS011;66420;50.246;14.320;2023-05-20T10:26:16;12.48;;;7.93;;
77350;SDS011;66420;50.246;14.320;2023-05-20T10:29:01;14.43;;;8.15;;
77350;SDS011;66420;50.246;14.320;2023-05-20T10:31:58;15.60;;;7.32;;
77350;SDS011;66420;50.246;14.320;2023-05-20T10:34:44;12.48;;;7.60;;
77350;SDS011;66420;50.246;14.320;2023-05-20T10:37:31;11.95;;;7.47;;
77350;SDS011;66420;50.246;14.320;2023-05-20T10:40:24;10.57;;;6.50;;
77350;SDS011;66420;50.246;14.320;2023-05-20T10:43:09;17.92;;;8.45;;
77350;SDS011;66420;50.246;14.320;2023-05-20T10:45:55;15.55;;;8.13;;
77350;SDS011;66420;50.246;14.320;2023-05-20T10:48:41;12.90;;;7.65;;
77350;SDS011;66420;50.246;14.320;2023-05-20T10:51:27;10.52;;;7.57;;
77350;SDS011;66420;50.246;14.320;2023-05-20T10:54:15;14.63;;;7.45;;
77350;SDS011;66420;50.246;14.320;2023-05-20T10:56:59;11.85;;;7.75;;
77350;SDS011;66420;50.246;14.320;2023-05-20T10:59:49;13.85;;;7.47;;
77350;SDS011;66420;50.246;14.320;2023-05-20T11:02:34;23.80;;;7.50;;
77350;SDS011;66420;50.246;14.320;2023-05-20T11:05:19;14.95;;;7.68;;
77350;SDS011;66420;50.246;14.320;2023-05-20T11:08:05;10.18;;;7.50;;
77350;SDS011;66420;50.246;14.320;2023-05-20T11:10:51;11.77;;;6.65;;
77350;SDS011;66420;50.246;14.320;2023-05-20T11:13:39;11.18;;;6.72;;
77350;SDS011;66420;50.246;14.320;2023-05-20T11:16:24;11.13;;;7.35;;
77350;SDS011;66420;50.246;14.320;2023-05-20T11:19:15;9.00;;;6.68;;
77350;SDS011;66420;50.246;14.320;2023-05-20T11:22:02;10.05;;;6.05;;
77350;SDS011;66420;50.246;14.320;2023-05-20T11:24:46;11.27;;;6.50;;
77350;SDS011;66420;50.246;14.320;2023-05-20T11:27:32;9.88;;;6.68;;
77350;SDS011;66420;50.246;14.320;2023-05-20T11:30:17;10.68;;;6.60;;
77350;SDS011;66420;50.246;14.320;2023-05-20T11:33:03;11.05;;;6.43;;
77350;SDS011;66420;50.246;14.320;2023-05-20T11:35:49;11.55;;;6.97;;
77350;SDS011;66420;50.246;14.320;2023-05-20T11:38:36;11.63;;;6.70;;
77350;SDS011;66420;50.246;14.320;2023-05-20T11:41:25;9.02;;;6.63;;
77350;SDS011;66420;50.246;14.320;2023-05-20T11:44:10;13.00;;;6.30;;
77350;SDS011;66420;50.246;14.320;2023-05-20T11:46:59;11.05;;;6.43;;
77350;SDS011;66420;50.246;14.320;2023-05-20T11:49:47;12.00;;;7.10;;
77350;SDS011;66420;50.246;14.320;2023-05-20T11:52:32;12.15;;;6.60;;
77350;SDS011;66420;50.246;14.320;2023-05-20T11:55:17;17.52;;;6.93;;
77350;SDS011;66420;50.246;14.320;2023-05-20T11:58:02;9.95;;;6.85;;
77350;SDS011;66420;50.246;14.320;2023-05-20T12:00:47;10.38;;;6.63;;
77350;SDS011;66420;50.246;14.320;2023-05-20T12:03:33;9.32;;;6.45;;
77350;SDS011;66420;50.246;14.320;2023-05-20T12:06:18;10.15;;;6.57;;
77350;SDS011;66420;50.246;14.320;2023-05-20T12:09:04;9.02;;;6.70;;
77350;SDS011;66420;50.246;14.320;2023-05-20T12:11:51;12.20;;;7.10;;
77350;SDS011;66420;50.246;14.320;2023-05-20T12:14:36;11.80;;;7.47;;
77350;SDS011;66420;50.246;14.320;2023-05-20T12:17:20;14.18;;;6.97;;
77350;SDS011;66420;50.246;14.320;2023-05-20T12:20:06;10.88;;;7.35;;
77350;SDS011;66420;50.246;14.320;2023-05-20T12:22:51;11.60;;;7.03;;
77350;SDS011;66420;50.246;14.320;2023-05-20T12:25:36;12.93;;;7.85;;
77350;SDS011;66420;50.246;14.320;2023-05-20T12:28:20;10.23;;;7.57;;
77350;SDS011;66420;50.246;14.320;2023-05-20T12:31:05;10.13;;;6.47;;
77350;SDS011;66420;50.246;14.320;2023-05-20T12:33:49;9.63;;;6.45;;
77350;SDS011;66420;50.246;14.320;2023-05-20T12:36:34;11.27;;;6.97;;
77350;SDS011;66420;50.246;14.320;2023-05-20T12:39:18;12.18;;;7.57;;
77350;SDS011;66420;50.246;14.320;2023-05-20T12:42:03;12.55;;;7.00;;
77350;SDS011;66420;50.246;14.320;2023-05-20T12:44:48;10.98;;;7.00;;
77350;SDS011;66420;50.246;14.320;2023-05-20T12:47:33;10.40;;;6.97;;
77350;SDS011;66420;50.246;14.320;2023-05-20T12:50:18;12.98;;;7.30;;
77350;SDS011;66420;50.246;14.320;2023-05-20T12:53:02;13.40;;;7.22;;
77350;SDS011;66420;50.246;14.320;2023-05-20T12:55:47;10.82;;;6.13;;
77350;SDS011;66420;50.246;14.320;2023-05-20T12:58:32;12.43;;;7.57;;
77350;SDS011;66420;50.246;14.320;2023-05-20T13:01:17;13.55;;;7.50;;
77350;SDS011;66420;50.246;14.320;2023-05-20T13:04:02;13.43;;;7.20;;
77350;SDS011;66420;50.246;14.320;2023-05-20T13:06:46;12.73;;;6.40;;
77350;SDS011;66420;50.246;14.320;2023-05-20T13:09:31;12.20;;;6.53;;
77350;SDS011;66420;50.246;14.320;2023-05-20T13:12:16;16.23;;;7.55;;
77350;SDS011;66420;50.246;14.320;2023-05-20T13:15:01;12.45;;;7.47;;
77350;SDS011;66420;50.246;14.320;2023-05-20T13:17:46;14.02;;;6.47;;
77350;SDS011;66420;50.246;14.320;2023-05-20T13:20:31;11.05;;;7.28;;
77350;SDS011;66420;50.246;14.320;2023-05-20T13:23:17;10.90;;;6.50;;
77350;SDS011;66420;50.246;14.320;2023-05-20T13:26:01;9.77;;;6.32;;
77350;SDS011;66420;50.246;14.320;2023-05-20T13:28:46;15.05;;;6.93;;
77350;SDS011;66420;50.246;14.320;2023-05-20T13:31:31;12.55;;;7.47;;
77350;SDS011;66420;50.246;14.320;2023-05-20T13:34:15;11.20;;;7.45;;
77350;SDS011;66420;50.246;14.320;2023-05-20T13:37:00;14.05;;;7.78;;
77350;SDS011;66420;50.246;14.320;2023-05-20T13:39:45;10.27;;;7.75;;
77350;SDS011;66420;50.246;14.320;2023-05-20T13:42:30;10.70;;;6.75;;
77350;SDS011;66420;50.246;14.320;2023-05-20T13:45:14;16.23;;;7.00;;
77350;SDS011;66420;50.246;14.320;2023-05-20T13:48:01;11.00;;;6.75;;
77350;SDS011;66420;50.246;14.320;2023-05-20T13:50:46;11.95;;;6.78;;
77350;SDS011;66420;50.246;14.320;2023-05-20T13:53:31;8.52;;;6.70;;
77350;SDS011;66420;50.246;14.320;2023-05-20T13:56:16;12.00;;;7.15;;
77350;SDS011;66420;50.246;14.320;2023-05-20T13:59:01;17.50;;;7.72;;
77350;SDS011;66420;50.246;14.320;2023-05-20T14:01:45;13.25;;;7.45;;
77350;SDS011;66420;50.246;14.320;2023-05-20T14:04:30;11.52;;;7.25;;
77350;SDS011;66420;50.246;14.320;2023-05-20T14:07:15;9.23;;;7.05;;
77350;SDS011;66420;50.246;14.320;2023-05-20T14:10:00;10.35;;;7.25;;
77350;SDS011;66420;50.246;14.320;2023-05-20T14:12:44;15.70;;;6.57;;
77350;SDS011;66420;50.246;14.320;2023-05-20T14:15:31;12.45;;;6.60;;
77350;SDS011;66420;50.246;14.320;2023-05-20T14:18:15;10.38;;;7.15;;
77350;SDS011;66420;50.246;14.320;2023-05-20T14:21:00;8.85;;;6.60;;
77350;SDS011;66420;50.246;14.320;2023-05-20T14:23:45;9.43;;;6.22;;
77350;SDS011;66420;50.246;14.320;2023-05-20T14:26:31;9.55;;;6.78;;
77350;SDS011;66420;50.246;14.320;2023-05-20T14:29:16;7.93;;;5.88;;
77350;SDS011;66420;50.246;14.320;2023-05-20T14:32:00;8.68;;;6.57;;
77350;SDS011;66420;50.246;14.320;2023-05-20T14:34:47;10.18;;;6.50;;
77350;SDS011;66420;50.246;14.320;2023-05-20T14:37:31;11.43;;;7.05;;
77350;SDS011;66420;50.246;14.320;2023-05-20T14:40:17;10.73;;;6.28;;
77350;SDS011;66420;50.246;14.320;2023-05-20T14:43:02;15.25;;;6.30;;
77350;SDS011;66420;50.246;14.320;2023-05-20T14:45:46;9.10;;;6.20;;
77350;SDS011;66420;50.246;14.320;2023-05-20T14:48:32;14.45;;;6.97;;
77350;SDS011;66420;50.246;14.320;2023-05-20T14:51:16;12.60;;;6.47;;
77350;SDS011;66420;50.246;14.320;2023-05-20T14:54:01;11.50;;;6.03;;
77350;SDS011;66420;50.246;14.320;2023-05-20T14:56:47;9.35;;;6.50;;
77350;SDS011;66420;50.246;14.320;2023-05-20T14:59:32;8.63;;;6.35;;
77350;SDS011;66420;50.246;14.320;2023-05-20T15:02:17;11.13;;;6.35;;
77350;SDS011;66420;50.246;14.320;2023-05-20T15:05:02;9.82;;;6.72;;
77350;SDS011;66420;50.246;14.320;2023-05-20T15:07:48;10.50;;;6.32;;
77350;SDS011;66420;50.246;14.320;2023-05-20T15:10:33;13.80;;;6.65;;
77350;SDS011;66420;50.246;14.320;2023-05-20T15:13:18;11.85;;;5.80;;
77350;SDS011;66420;50.246;14.320;2023-05-20T15:16:03;8.65;;;6.18;;
77350;SDS011;66420;50.246;14.320;2023-05-20T15:18:48;7.80;;;5.95;;
77350;SDS011;66420;50.246;14.320;2023-05-20T15:21:36;10.38;;;5.95;;
77350;SDS011;66420;50.246;14.320;2023-05-20T15:24:20;11.60;;;6.50;;
77350;SDS011;66420;50.246;14.320;2023-05-20T15:27:05;10.63;;;6.05;;
77350;SDS011;66420;50.246;14.320;2023-05-20T15:29:50;10.38;;;6.35;;
77350;SDS011;66420;50.246;14.320;2023-05-20T15:32:35;12.05;;;6.57;;
77350;SDS011;66420;50.246;14.320;2023-05-20T15:35:20;10.85;;;5.95;;
77350;SDS011;66420;50.246;14.320;2023-05-20T15:38:04;10.55;;;6.53;;
77350;SDS011;66420;50.246;14.320;2023-05-20T15:40:49;11.25;;;6.53;;
77350;SDS011;66420;50.246;14.320;2023-05-20T15:43:34;9.93;;;6.85;;
77350;SDS011;66420;50.246;14.320;2023-05-20T15:46:18;9.55;;;6.63;;
77350;SDS011;66420;50.246;14.320;2023-05-20T15:49:03;8.98;;;5.72;;
77350;SDS011;66420;50.246;14.320;2023-05-20T15:51:48;10.40;;;6.20;;
77350;SDS011;66420;50.246;14.320;2023-05-20T15:54:33;10.13;;;6.80;;
77350;SDS011;66420;50.246;14.320;2023-05-20T15:57:17;10.77;;;6.65;;
77350;SDS011;66420;50.246;14.320;2023-05-20T16:00:02;10.98;;;6.35;;
77350;SDS011;66420;50.246;14.320;2023-05-20T16:02:50;10.82;;;6.63;;
77350;SDS011;66420;50.246;14.320;2023-05-20T16:05:37;14.50;;;6.72;;
77350;SDS011;66420;50.246;14.320;2023-05-20T16:08:22;13.30;;;6.60;;
77350;SDS011;66420;50.246;14.320;2023-05-20T16:11:07;10.70;;;7.05;;
77350;SDS011;66420;50.246;14.320;2023-05-20T16:13:51;10.68;;;6.50;;
77350;SDS011;66420;50.246;14.320;2023-05-20T16:16:36;9.85;;;5.80;;